sensor_id;sensor_type;location;lat;lon;timestamp;pressure;altitude;pressure_sealevel;temperature;humidity
52651;BME280;38537;47.226;39.702;2023-02-20T00:01:04;99730.06;;;8.48;60.09
52651;BME280;38537;47.226;39.702;2023-02-20T00:03:31;99731.00;;;8.57;59.81
52651;BME280;38537;47.226;39.702;2023-02-20T00:05:58;99741.72;;;8.64;59.40
52651;BME280;38537;47.226;39.702;2023-02-20T00:08:25;99731.28;;;8.70;59.18
52651;BME280;38537;47.226;39.702;2023-02-20T00:10:53;99737.69;;;8.70;58.88
52651;BME280;38537;47.226;39.702;2023-02-20T00:13:20;99714.34;;;8.44;59.09
52651;BME280;38537;47.226;39.702;2023-02-20T00:15:47;99730.91;;;8.63;59.22
52651;BME280;38537;47.226;39.702;2023-02-20T00:18:15;99721.00;;;8.56;59.19
52651;BME280;38537;47.226;39.702;2023-02-20T00:20:42;99735.56;;;8.40;59.34
52651;BME280;38537;47.226;39.702;2023-02-20T00:23:09;99717.59;;;8.46;59.07
52651;BME280;38537;47.226;39.702;2023-02-20T00:25:36;99721.31;;;8.55;59.07
52651;BME280;38537;47.226;39.702;2023-02-20T00:28:04;99740.59;;;8.38;58.61
52651;BME280;38537;47.226;39.702;2023-02-20T00:30:32;99713.16;;;8.31;59.22
52651;BME280;38537;47.226;39.702;2023-02-20T00:33:00;99711.31;;;8.26;59.04
52651;BME280;38537;47.226;39.702;2023-02-20T00:35:27;99718.44;;;8.33;58.89
52651;BME280;38537;47.226;39.702;2023-02-20T00:37:55;99726.38;;;8.39;59.02
52651;BME280;38537;47.226;39.702;2023-02-20T00:40:23;99706.16;;;8.47;58.58
52651;BME280;38537;47.226;39.702;2023-02-20T00:42:51;99706.38;;;8.65;57.96
52651;BME280;38537;47.226;39.702;2023-02-20T00:45:18;99711.50;;;8.71;57.70
52651;BME280;38537;47.226;39.702;2023-02-20T00:47:46;99717.56;;;8.73;57.58
52651;BME280;38537;47.226;39.702;2023-02-20T00:50:15;99703.06;;;8.49;57.49
52651;BME280;38537;47.226;39.702;2023-02-20T00:52:43;99724.00;;;8.60;57.70
52651;BME280;38537;47.226;39.702;2023-02-20T00:55:11;99725.31;;;8.76;57.39
52651;BME280;38537;47.226;39.702;2023-02-20T00:57:38;99716.13;;;8.76;56.94
52651;BME280;38537;47.226;39.702;2023-02-20T01:00:08;99729.63;;;8.82;56.79
52651;BME280;38537;47.226;39.702;2023-02-20T01:02:37;99715.63;;;8.74;56.98
52651;BME280;38537;47.226;39.702;2023-02-20T01:05:05;99716.53;;;8.69;57.07
52651;BME280;38537;47.226;39.702;2023-02-20T01:07:34;99721.19;;;8.74;56.67
52651;BME280;38537;47.226;39.702;2023-02-20T01:10:01;99714.94;;;8.41;56.61
52651;BME280;38537;47.226;39.702;2023-02-20T01:12:31;99716.59;;;8.55;57.17
52651;BME280;38537;47.226;39.702;2023-02-20T01:14:58;99728.25;;;8.44;56.75
52651;BME280;38537;47.226;39.702;2023-02-20T01:17:29;99722.66;;;8.16;56.93
52651;BME280;38537;47.226;39.702;2023-02-20T01:19:57;99714.47;;;8.06;57.66
52651;BME280;38537;47.226;39.702;2023-02-20T01:22:24;99699.38;;;7.99;57.71
52651;BME280;38537;47.226;39.702;2023-02-20T01:24:51;99716.44;;;8.06;57.69
52651;BME280;38537;47.226;39.702;2023-02-20T01:27:20;99715.84;;;7.63;57.63
52651;BME280;38537;47.226;39.702;2023-02-20T01:29:48;99726.66;;;7.64;58.24
52651;BME280;38537;47.226;39.702;2023-02-20T01:32:15;99709.09;;;7.69;58.16
52651;BME280;38537;47.226;39.702;2023-02-20T01:34:42;99707.16;;;7.83;58.23
52651;BME280;38537;47.226;39.702;2023-02-20T01:37:13;99710.06;;;7.91;57.83
52651;BME280;38537;47.226;39.702;2023-02-20T01:39:40;99718.38;;;7.91;57.60
52651;BME280;38537;47.226;39.702;2023-02-20T01:42:12;99714.56;;;7.74;57.89
52651;BME280;38537;47.226;39.702;2023-02-20T01:44:43;99727.44;;;7.83;58.03
52651;BME280;38537;47.226;39.702;2023-02-20T01:47:16;99716.09;;;7.80;57.71
52651;BME280;38537;47.226;39.702;2023-02-20T01:49:47;99713.06;;;7.63;57.78
52651;BME280;38537;47.226;39.702;2023-02-20T01:52:29;99724.94;;;7.36;57.67
52651;BME280;38537;47.226;39.702;2023-02-20T01:55:09;99724.41;;;7.15;58.41
52651;BME280;38537;47.226;39.702;2023-02-20T01:57:40;99712.72;;;7.18;58.92
52651;BME280;38537;47.226;39.702;2023-02-20T02:00:17;99714.28;;;7.24;58.55
52651;BME280;38537;47.226;39.702;2023-02-20T02:03:10;99722.41;;;7.02;59.13
52651;BME280;38537;47.226;39.702;2023-02-20T02:05:40;99721.09;;;6.38;59.35
52651;BME280;38537;47.226;39.702;2023-02-20T02:08:10;99721.13;;;6.09;60.32
52651;BME280;38537;47.226;39.702;2023-02-20T02:10:55;99708.97;;;5.81;61.22
52651;BME280;38537;47.226;39.702;2023-02-20T02:13:24;99698.63;;;5.63;62.02
52651;BME280;38537;47.226;39.702;2023-02-20T02:16:26;99700.88;;;5.61;62.02
52651;BME280;38537;47.226;39.702;2023-02-20T02:27:31;99696.97;;;5.62;62.26
52651;BME280;38537;47.226;39.702;2023-02-20T02:39:14;99704.53;;;5.80;62.71
52651;BME280;38537;47.226;39.702;2023-02-20T02:41:56;99704.22;;;6.10;61.98
52651;BME280;38537;47.226;39.702;2023-02-20T02:44:46;99703.69;;;6.51;61.60
52651;BME280;38537;47.226;39.702;2023-02-20T02:47:22;99686.41;;;6.59;61.05
52651;BME280;38537;47.226;39.702;2023-02-20T02:49:58;99707.06;;;6.91;60.09
52651;BME280;38537;47.226;39.702;2023-02-20T02:52:29;99687.47;;;6.82;60.18
52651;BME280;38537;47.226;39.702;2023-02-20T02:55:20;99693.91;;;6.96;60.04
52651;BME280;38537;47.226;39.702;2023-02-20T02:57:48;99691.88;;;7.02;59.99
52651;BME280;38537;47.226;39.702;2023-02-20T03:00:20;99708.50;;;7.20;59.46
52651;BME280;38537;47.226;39.702;2023-02-20T03:05:30;99705.22;;;6.62;59.97
52651;BME280;38537;47.226;39.702;2023-02-20T03:08:39;99716.19;;;6.91;60.19
52651;BME280;38537;47.226;39.702;2023-02-20T03:11:12;99697.66;;;6.86;60.42
52651;BME280;38537;47.226;39.702;2023-02-20T03:13:50;99699.75;;;7.13;59.67
52651;BME280;38537;47.226;39.702;2023-02-20T03:16:53;99707.66;;;7.39;59.54
52651;BME280;38537;47.226;39.702;2023-02-20T03:19:31;99701.41;;;7.14;59.05
52651;BME280;38537;47.226;39.702;2023-02-20T03:22:00;99689.91;;;7.21;59.51
52651;BME280;38537;47.226;39.702;2023-02-20T03:24:30;99684.94;;;7.18;59.03
52651;BME280;38537;47.226;39.702;2023-02-20T03:27:00;99697.47;;;7.34;59.36
52651;BME280;38537;47.226;39.702;2023-02-20T03:29:33;99689.56;;;7.41;59.17
52651;BME280;38537;47.226;39.702;2023-02-20T03:32:06;99695.06;;;7.28;58.84
52651;BME280;38537;47.226;39.702;2023-02-20T03:34:55;99680.91;;;7.29;59.21
52651;BME280;38537;47.226;39.702;2023-02-20T03:37:43;99693.16;;;7.42;58.71
52651;BME280;38537;47.226;39.702;2023-02-20T03:40:31;99715.16;;;7.71;58.50
52651;BME280;38537;47.226;39.702;2023-02-20T03:43:19;99676.19;;;7.43;58.30
52651;BME280;38537;47.226;39.702;2023-02-20T03:46:06;99674.44;;;7.15;58.37
52651;BME280;38537;47.226;39.702;2023-02-20T03:49:17;99685.28;;;6.98;59.62
52651;BME280;38537;47.226;39.702;2023-02-20T03:51:38;99687.91;;;7.08;59.71
52651;BME280;38537;47.226;39.702;2023-02-20T03:54:12;99691.22;;;7.10;59.73
52651;BME280;38537;47.226;39.702;2023-02-20T03:56:48;99693.38;;;6.94;60.40
52651;BME280;38537;47.226;39.702;2023-02-20T03:59:46;99691.00;;;6.87;60.04
52651;BME280;38537;47.226;39.702;2023-02-20T04:02:27;99653.81;;;6.88;60.46
52651;BME280;38537;47.226;39.702;2023-02-20T04:05:03;99658.00;;;6.86;60.63
52651;BME280;38537;47.226;39.702;2023-02-20T04:07:38;99657.47;;;6.84;60.68
52651;BME280;38537;47.226;39.702;2023-02-20T04:10:14;99673.66;;;7.14;60.65
52651;BME280;38537;47.226;39.702;2023-02-20T04:12:46;99653.25;;;7.05;60.36
52651;BME280;38537;47.226;39.702;2023-02-20T04:15:16;99669.44;;;6.98;60.47
52651;BME280;38537;47.226;39.702;2023-02-20T04:17:57;99676.59;;;6.85;60.70
52651;BME280;38537;47.226;39.702;2023-02-20T04:20:34;99618.03;;;6.31;61.17
52651;BME280;38537;47.226;39.702;2023-02-20T04:23:24;99668.41;;;6.94;61.44
52651;BME280;38537;47.226;39.702;2023-02-20T04:25:59;99666.31;;;6.86;61.89
52651;BME280;38537;47.226;39.702;2023-02-20T04:28:31;99665.22;;;6.68;61.34
52651;BME280;38537;47.226;39.702;2023-02-20T04:31:01;99658.72;;;6.54;61.75
52651;BME280;38537;47.226;39.702;2023-02-20T04:33:30;99656.59;;;6.70;62.15
52651;BME280;38537;47.226;39.702;2023-02-20T04:36:04;99659.34;;;6.70;61.65
52651;BME280;38537;47.226;39.702;2023-02-20T04:38:32;99673.06;;;6.80;61.45
52651;BME280;38537;47.226;39.702;2023-02-20T04:41:04;99647.66;;;6.92;61.38
52651;BME280;38537;47.226;39.702;2023-02-20T04:43:31;99647.13;;;6.90;60.80
52651;BME280;38537;47.226;39.702;2023-02-20T04:45:59;99643.78;;;7.06;61.18
52651;BME280;38537;47.226;39.702;2023-02-20T04:48:27;99630.28;;;7.00;60.95
52651;BME280;38537;47.226;39.702;2023-02-20T04:50:55;99640.22;;;6.87;61.11
52651;BME280;38537;47.226;39.702;2023-02-20T04:53:28;99649.91;;;6.90;61.25
52651;BME280;38537;47.226;39.702;2023-02-20T04:55:57;99644.06;;;6.91;61.77
52651;BME280;38537;47.226;39.702;2023-02-20T04:58:26;99634.00;;;6.76;61.56
52651;BME280;38537;47.226;39.702;2023-02-20T05:01:00;99636.84;;;6.90;61.36
52651;BME280;38537;47.226;39.702;2023-02-20T05:03:28;99636.63;;;6.86;61.36
52651;BME280;38537;47.226;39.702;2023-02-20T05:05:55;99638.19;;;6.93;61.72
52651;BME280;38537;47.226;39.702;2023-02-20T05:08:23;99652.06;;;6.93;61.52
52651;BME280;38537;47.226;39.702;2023-02-20T05:10:50;99650.91;;;6.94;61.76
52651;BME280;38537;47.226;39.702;2023-02-20T05:13:17;99646.69;;;7.15;61.54
52651;BME280;38537;47.226;39.702;2023-02-20T05:15:45;99631.69;;;7.16;60.94
52651;BME280;38537;47.226;39.702;2023-02-20T05:18:12;99656.69;;;6.97;61.24
52651;BME280;38537;47.226;39.702;2023-02-20T05:20:40;99654.13;;;6.68;61.57
52651;BME280;38537;47.226;39.702;2023-02-20T05:23:26;99635.41;;;6.36;62.18
52651;BME280;38537;47.226;39.702;2023-02-20T05:25:53;99646.00;;;6.10;62.77
52651;BME280;38537;47.226;39.702;2023-02-20T05:28:21;99650.09;;;5.94;63.33
52651;BME280;38537;47.226;39.702;2023-02-20T05:30:48;99634.63;;;5.64;63.93
52651;BME280;38537;47.226;39.702;2023-02-20T05:33:15;99641.41;;;5.77;64.75
52651;BME280;38537;47.226;39.702;2023-02-20T05:35:43;99650.91;;;5.71;64.67
52651;BME280;38537;47.226;39.702;2023-02-20T05:38:19;99636.34;;;5.60;64.83
52651;BME280;38537;47.226;39.702;2023-02-20T05:40:46;99647.75;;;5.54;65.35
52651;BME280;38537;47.226;39.702;2023-02-20T05:43:15;99639.69;;;5.28;65.40
52651;BME280;38537;47.226;39.702;2023-02-20T05:45:42;99651.72;;;5.42;65.60
52651;BME280;38537;47.226;39.702;2023-02-20T05:48:14;99652.25;;;5.73;66.01
52651;BME280;38537;47.226;39.702;2023-02-20T05:50:41;99654.53;;;5.66;65.43
52651;BME280;38537;47.226;39.702;2023-02-20T05:53:16;99631.94;;;5.83;64.85
52651;BME280;38537;47.226;39.702;2023-02-20T05:55:43;99629.31;;;5.68;64.85
52651;BME280;38537;47.226;39.702;2023-02-20T05:58:10;99622.41;;;5.41;64.57
52651;BME280;38537;47.226;39.702;2023-02-20T06:00:37;99631.94;;;5.30;64.91
52651;BME280;38537;47.226;39.702;2023-02-20T06:03:06;99642.66;;;5.08;66.05
52651;BME280;38537;47.226;39.702;2023-02-20T06:05:35;99632.16;;;4.76;66.39
52651;BME280;38537;47.226;39.702;2023-02-20T06:08:03;99643.56;;;4.64;66.63
52651;BME280;38537;47.226;39.702;2023-02-20T06:10:31;99642.28;;;4.46;67.74
52651;BME280;38537;47.226;39.702;2023-02-20T06:12:59;99636.56;;;4.33;68.29
52651;BME280;38537;47.226;39.702;2023-02-20T06:15:26;99627.19;;;4.29;68.27
52651;BME280;38537;47.226;39.702;2023-02-20T06:17:54;99625.25;;;4.29;68.79
52651;BME280;38537;47.226;39.702;2023-02-20T06:20:21;99625.41;;;3.99;68.38
52651;BME280;38537;47.226;39.702;2023-02-20T06:22:48;99623.00;;;3.87;69.11
52651;BME280;38537;47.226;39.702;2023-02-20T06:25:16;99617.56;;;3.67;69.69
52651;BME280;38537;47.226;39.702;2023-02-20T06:27:43;99615.38;;;3.49;69.80
52651;BME280;38537;47.226;39.702;2023-02-20T06:30:11;99625.28;;;3.60;70.85
52651;BME280;38537;47.226;39.702;2023-02-20T06:32:38;99624.19;;;3.61;70.89
52651;BME280;38537;47.226;39.702;2023-02-20T06:35:06;99609.91;;;3.38;70.49
52651;BME280;38537;47.226;39.702;2023-02-20T06:37:36;99613.50;;;3.29;71.31
52651;BME280;38537;47.226;39.702;2023-02-20T06:40:06;99604.69;;;3.17;72.11
52651;BME280;38537;47.226;39.702;2023-02-20T06:42:36;99620.94;;;3.28;71.84
52651;BME280;38537;47.226;39.702;2023-02-20T06:45:05;99611.59;;;3.09;72.23
52651;BME280;38537;47.226;39.702;2023-02-20T06:47:33;99621.81;;;3.19;72.38
52651;BME280;38537;47.226;39.702;2023-02-20T06:50:00;99619.59;;;3.10;72.43
52651;BME280;38537;47.226;39.702;2023-02-20T06:52:29;99616.84;;;3.05;72.39
52651;BME280;38537;47.226;39.702;2023-02-20T06:54:56;99611.03;;;3.12;73.25
52651;BME280;38537;47.226;39.702;2023-02-20T06:57:23;99596.97;;;3.03;72.66
52651;BME280;38537;47.226;39.702;2023-02-20T06:59:50;99624.00;;;3.17;72.50
52651;BME280;38537;47.226;39.702;2023-02-20T07:02:18;99607.47;;;3.17;73.33
52651;BME280;38537;47.226;39.702;2023-02-20T07:04:48;99614.34;;;3.14;73.02
52651;BME280;38537;47.226;39.702;2023-02-20T07:07:16;99609.38;;;3.06;72.86
52651;BME280;38537;47.226;39.702;2023-02-20T07:09:44;99585.69;;;3.00;72.95
52651;BME280;38537;47.226;39.702;2023-02-20T07:12:11;99607.75;;;3.00;73.37
52651;BME280;38537;47.226;39.702;2023-02-20T07:14:38;99601.69;;;2.93;73.27
52651;BME280;38537;47.226;39.702;2023-02-20T07:17:06;99591.75;;;2.92;74.07
52651;BME280;38537;47.226;39.702;2023-02-20T07:19:33;99581.00;;;2.95;73.95
52651;BME280;38537;47.226;39.702;2023-02-20T07:22:00;99590.94;;;2.96;73.63
52651;BME280;38537;47.226;39.702;2023-02-20T07:24:28;99597.84;;;2.94;73.83
52651;BME280;38537;47.226;39.702;2023-02-20T07:26:56;99588.47;;;2.80;74.16
52651;BME280;38537;47.226;39.702;2023-02-20T07:29:23;99587.09;;;2.77;74.45
52651;BME280;38537;47.226;39.702;2023-02-20T07:31:50;99590.13;;;2.75;74.73
52651;BME280;38537;47.226;39.702;2023-02-20T07:34:18;99580.22;;;2.74;74.97
52651;BME280;38537;47.226;39.702;2023-02-20T07:36:45;99574.97;;;2.73;75.03
52651;BME280;38537;47.226;39.702;2023-02-20T07:39:12;99584.59;;;2.86;74.83
52651;BME280;38537;47.226;39.702;2023-02-20T07:41:40;99589.28;;;3.00;75.50
52651;BME280;38537;47.226;39.702;2023-02-20T07:44:28;99587.06;;;3.02;74.66
52651;BME280;38537;47.226;39.702;2023-02-20T07:46:55;99573.28;;;2.92;74.62
52651;BME280;38537;47.226;39.702;2023-02-20T07:49:23;99570.53;;;2.87;74.55
52651;BME280;38537;47.226;39.702;2023-02-20T07:51:50;99576.03;;;2.92;74.67
52651;BME280;38537;47.226;39.702;2023-02-20T07:54:18;99575.22;;;2.97;74.79
52651;BME280;38537;47.226;39.702;2023-02-20T07:56:45;99585.94;;;3.03;75.05
52651;BME280;38537;47.226;39.702;2023-02-20T07:59:12;99588.41;;;3.20;74.86
52651;BME280;38537;47.226;39.702;2023-02-20T08:01:40;99585.13;;;3.18;74.62
52651;BME280;38537;47.226;39.702;2023-02-20T08:04:07;99567.72;;;3.23;74.88
52651;BME280;38537;47.226;39.702;2023-02-20T08:06:35;99572.72;;;3.10;74.37
52651;BME280;38537;47.226;39.702;2023-02-20T08:09:02;99569.69;;;3.07;74.80
52651;BME280;38537;47.226;39.702;2023-02-20T08:11:35;99584.84;;;3.04;74.57
52651;BME280;38537;47.226;39.702;2023-02-20T08:14:05;99577.44;;;3.00;74.47
52651;BME280;38537;47.226;39.702;2023-02-20T08:16:38;99575.50;;;2.95;74.13
52651;BME280;38537;47.226;39.702;2023-02-20T08:19:09;99567.22;;;2.85;75.40
52651;BME280;38537;47.226;39.702;2023-02-20T08:21:49;99555.94;;;2.71;74.93
52651;BME280;38537;47.226;39.702;2023-02-20T08:24:36;99558.69;;;2.71;74.90
52651;BME280;38537;47.226;39.702;2023-02-20T08:27:04;99564.22;;;2.77;75.25
52651;BME280;38537;47.226;39.702;2023-02-20T08:29:34;99579.34;;;2.89;75.31
52651;BME280;38537;47.226;39.702;2023-02-20T08:32:13;99578.25;;;2.85;76.29
52651;BME280;38537;47.226;39.702;2023-02-20T08:34:47;99564.75;;;2.89;75.60
52651;BME280;38537;47.226;39.702;2023-02-20T08:37:14;99578.53;;;2.99;75.42
52651;BME280;38537;47.226;39.702;2023-02-20T08:39:44;99576.31;;;2.96;75.48
52651;BME280;38537;47.226;39.702;2023-02-20T08:42:15;99568.31;;;2.84;75.18
52651;BME280;38537;47.226;39.702;2023-02-20T08:44:45;99547.94;;;2.70;75.19
52651;BME280;38537;47.226;39.702;2023-02-20T08:47:13;99552.91;;;2.63;74.98
52651;BME280;38537;47.226;39.702;2023-02-20T08:49:40;99550.97;;;2.63;76.16
52651;BME280;38537;47.226;39.702;2023-02-20T08:52:09;99516.84;;;2.34;76.05
52651;BME280;38537;47.226;39.702;2023-02-20T08:54:36;99543.28;;;2.45;76.25
52651;BME280;38537;47.226;39.702;2023-02-20T08:57:04;99536.91;;;2.39;76.31
52651;BME280;38537;47.226;39.702;2023-02-20T08:59:36;99547.97;;;2.34;77.02
52651;BME280;38537;47.226;39.702;2023-02-20T09:02:19;99551.53;;;2.40;77.14
52651;BME280;38537;47.226;39.702;2023-02-20T09:04:47;99545.75;;;2.26;77.31
52651;BME280;38537;47.226;39.702;2023-02-20T09:07:19;99516.78;;;1.98;77.15
52651;BME280;38537;47.226;39.702;2023-02-20T09:09:48;99550.94;;;2.18;77.39
52651;BME280;38537;47.226;39.702;2023-02-20T09:12:18;99530.84;;;2.02;77.58
52651;BME280;38537;47.226;39.702;2023-02-20T09:14:46;99535.50;;;2.01;77.93
52651;BME280;38537;47.226;39.702;2023-02-20T09:17:16;99510.47;;;1.93;78.25
52651;BME280;38537;47.226;39.702;2023-02-20T09:19:46;99546.81;;;2.00;77.92
52651;BME280;38537;47.226;39.702;2023-02-20T09:22:14;99518.72;;;1.88;78.46
52651;BME280;38537;47.226;39.702;2023-02-20T09:24:46;99538.56;;;2.20;78.99
52651;BME280;38537;47.226;39.702;2023-02-20T09:27:13;99525.63;;;2.26;78.42
52651;BME280;38537;47.226;39.702;2023-02-20T09:29:42;99512.13;;;2.24;78.51
52651;BME280;38537;47.226;39.702;2023-02-20T09:32:10;99522.31;;;2.39;78.14
52651;BME280;38537;47.226;39.702;2023-02-20T09:34:38;99524.53;;;2.42;78.31
52651;BME280;38537;47.226;39.702;2023-02-20T09:37:06;99518.47;;;2.55;78.24
52651;BME280;38537;47.226;39.702;2023-02-20T09:39:35;99510.22;;;2.50;78.19
52651;BME280;38537;47.226;39.702;2023-02-20T09:47:26;99544.91;;;2.87;77.40
52651;BME280;38537;47.226;39.702;2023-02-20T09:50:12;99545.69;;;3.07;77.61
52651;BME280;38537;47.226;39.702;2023-02-20T09:52:44;99532.44;;;3.04;76.74
52651;BME280;38537;47.226;39.702;2023-02-20T09:55:18;99526.94;;;3.04;76.16
52651;BME280;38537;47.226;39.702;2023-02-20T09:57:48;99506.84;;;2.99;76.20
52651;BME280;38537;47.226;39.702;2023-02-20T10:00:33;99516.16;;;3.13;76.38
52651;BME280;38537;47.226;39.702;2023-02-20T10:03:20;99519.53;;;3.00;76.58
52651;BME280;38537;47.226;39.702;2023-02-20T10:05:49;99511.25;;;2.95;76.25
52651;BME280;38537;47.226;39.702;2023-02-20T10:08:19;99496.59;;;3.04;76.79
52651;BME280;38537;47.226;39.702;2023-02-20T10:10:49;99513.41;;;3.13;75.76
52651;BME280;38537;47.226;39.702;2023-02-20T10:21:48;99525.91;;;3.65;76.17
52651;BME280;38537;47.226;39.702;2023-02-20T10:27:19;99522.28;;;3.69;75.28
52651;BME280;38537;47.226;39.702;2023-02-20T10:29:48;99521.78;;;3.62;74.64
52651;BME280;38537;47.226;39.702;2023-02-20T10:32:30;99526.38;;;3.82;75.36
52651;BME280;38537;47.226;39.702;2023-02-20T10:35:07;99510.66;;;3.77;74.40
52651;BME280;38537;47.226;39.702;2023-02-20T10:37:43;99513.72;;;3.71;74.15
52651;BME280;38537;47.226;39.702;2023-02-20T10:40:39;99505.78;;;4.03;75.11
52651;BME280;38537;47.226;39.702;2023-02-20T10:43:23;99520.97;;;4.06;74.15
52651;BME280;38537;47.226;39.702;2023-02-20T10:46:06;99496.00;;;3.82;73.22
52651;BME280;38537;47.226;39.702;2023-02-20T10:48:39;99526.81;;;3.99;73.34
52651;BME280;38537;47.226;39.702;2023-02-20T10:51:25;99502.06;;;3.84;72.75
52651;BME280;38537;47.226;39.702;2023-02-20T10:54:17;99503.72;;;3.85;73.47
52651;BME280;38537;47.226;39.702;2023-02-20T10:57:09;99536.63;;;4.16;74.00
52651;BME280;38537;47.226;39.702;2023-02-20T10:59:42;99530.53;;;4.19;72.71
52651;BME280;38537;47.226;39.702;2023-02-20T11:02:21;99537.09;;;4.33;72.71
52651;BME280;38537;47.226;39.702;2023-02-20T11:05:05;99545.66;;;4.31;72.08
52651;BME280;38537;47.226;39.702;2023-02-20T11:07:33;99526.91;;;4.28;71.78
52651;BME280;38537;47.226;39.702;2023-02-20T11:10:02;99537.38;;;4.31;71.31
52651;BME280;38537;47.226;39.702;2023-02-20T11:12:40;99521.53;;;4.42;71.02
52651;BME280;38537;47.226;39.702;2023-02-20T11:15:14;99540.22;;;4.55;69.65
52651;BME280;38537;47.226;39.702;2023-02-20T11:17:43;99524.38;;;4.66;69.94
52651;BME280;38537;47.226;39.702;2023-02-20T11:23:04;99547.75;;;4.50;68.69
52651;BME280;38537;47.226;39.702;2023-02-20T11:25:35;99531.06;;;4.60;69.02
52651;BME280;38537;47.226;39.702;2023-02-20T11:30:41;99562.69;;;4.77;67.89
52651;BME280;38537;47.226;39.702;2023-02-20T11:33:16;99550.75;;;4.82;68.05
52651;BME280;38537;47.226;39.702;2023-02-20T11:35:49;99549.69;;;4.78;67.81
52651;BME280;38537;47.226;39.702;2023-02-20T11:43:26;99556.28;;;4.82;66.18
52651;BME280;38537;47.226;39.702;2023-02-20T11:46:21;99572.56;;;4.89;65.67
52651;BME280;38537;47.226;39.702;2023-02-20T11:51:43;99572.59;;;4.83;65.86
52651;BME280;38537;47.226;39.702;2023-02-20T11:57:15;99577.59;;;4.81;65.38
52651;BME280;38537;47.226;39.702;2023-02-20T12:00:12;99585.78;;;4.97;65.14
52651;BME280;38537;47.226;39.702;2023-02-20T12:03:17;99572.31;;;4.85;64.00
52651;BME280;38537;47.226;39.702;2023-02-20T12:05:53;99595.19;;;4.96;64.81
52651;BME280;38537;47.226;39.702;2023-02-20T12:08:55;99597.88;;;5.01;63.57
52651;BME280;38537;47.226;39.702;2023-02-20T12:11:27;99604.94;;;4.88;63.66
52651;BME280;38537;47.226;39.702;2023-02-20T12:13:58;99607.41;;;4.90;63.29
52651;BME280;38537;47.226;39.702;2023-02-20T12:22:32;99603.38;;;5.06;62.17
52651;BME280;38537;47.226;39.702;2023-02-20T12:27:59;99626.69;;;5.29;59.60
52651;BME280;38537;47.226;39.702;2023-02-20T12:36:30;99599.91;;;4.95;58.33
52651;BME280;38537;47.226;39.702;2023-02-20T12:47:28;99687.69;;;4.79;55.92
52651;BME280;38537;47.226;39.702;2023-02-20T12:50:06;99662.88;;;4.69;56.61
52651;BME280;38537;47.226;39.702;2023-02-20T12:56:29;99654.59;;;4.69;55.13
52651;BME280;38537;47.226;39.702;2023-02-20T13:01:28;99655.59;;;4.78;55.52
52651;BME280;38537;47.226;39.702;2023-02-20T13:04:19;99681.31;;;4.79;53.93
52651;BME280;38537;47.226;39.702;2023-02-20T13:09:29;99650.16;;;4.68;53.67
52651;BME280;38537;47.226;39.702;2023-02-20T13:12:08;99646.19;;;4.79;53.67
52651;BME280;38537;47.226;39.702;2023-02-20T13:15:19;99662.16;;;4.93;53.16
52651;BME280;38537;47.226;39.702;2023-02-20T13:20:50;99677.91;;;4.97;52.99
52651;BME280;38537;47.226;39.702;2023-02-20T13:25:46;99687.13;;;4.77;50.06
52651;BME280;38537;47.226;39.702;2023-02-20T13:28:35;99671.72;;;4.71;50.23
52651;BME280;38537;47.226;39.702;2023-02-20T13:31:42;99695.50;;;4.72;48.66
52651;BME280;38537;47.226;39.702;2023-02-20T13:44:39;99704.84;;;4.76;49.25
52651;BME280;38537;47.226;39.702;2023-02-20T13:49:55;99689.28;;;4.91;49.69
52651;BME280;38537;47.226;39.702;2023-02-20T13:55:22;99695.22;;;5.08;49.90
52651;BME280;38537;47.226;39.702;2023-02-20T13:57:53;99704.28;;;5.19;50.88
52651;BME280;38537;47.226;39.702;2023-02-20T14:00:26;99701.81;;;5.17;49.41
52651;BME280;38537;47.226;39.702;2023-02-20T14:02:57;99674.22;;;5.07;50.24
52651;BME280;38537;47.226;39.702;2023-02-20T14:05:27;99694.88;;;5.20;50.32
52651;BME280;38537;47.226;39.702;2023-02-20T14:07:57;99699.81;;;5.23;50.49
52651;BME280;38537;47.226;39.702;2023-02-20T14:10:35;99697.88;;;5.23;50.21
52651;BME280;38537;47.226;39.702;2023-02-20T14:13:04;99695.66;;;5.20;50.48
52651;BME280;38537;47.226;39.702;2023-02-20T14:18:18;99694.13;;;5.09;50.38
52651;BME280;38537;47.226;39.702;2023-02-20T14:20:47;99685.28;;;5.07;50.60
52651;BME280;38537;47.226;39.702;2023-02-20T14:23:23;99703.47;;;5.18;50.20
52651;BME280;38537;47.226;39.702;2023-02-20T14:25:54;99696.75;;;5.24;50.55
52651;BME280;38537;47.226;39.702;2023-02-20T14:28:29;99701.41;;;5.29;50.61
52651;BME280;38537;47.226;39.702;2023-02-20T14:31:17;99694.47;;;5.31;50.17
52651;BME280;38537;47.226;39.702;2023-02-20T14:33:50;99684.38;;;5.16;50.64
52651;BME280;38537;47.226;39.702;2023-02-20T14:39:08;99705.34;;;5.57;51.27
52651;BME280;38537;47.226;39.702;2023-02-20T14:41:52;99694.50;;;5.60;51.48
52651;BME280;38537;47.226;39.702;2023-02-20T14:44:21;99703.13;;;5.82;51.73
52651;BME280;38537;47.226;39.702;2023-02-20T14:46:52;99731.66;;;5.83;50.93
52651;BME280;38537;47.226;39.702;2023-02-20T14:49:28;99706.66;;;5.88;51.91
52651;BME280;38537;47.226;39.702;2023-02-20T14:52:06;99720.03;;;6.10;51.94
52651;BME280;38537;47.226;39.702;2023-02-20T14:54:40;99729.16;;;6.34;51.56
52651;BME280;38537;47.226;39.702;2023-02-20T14:57:12;99728.75;;;6.46;51.05
52651;BME280;38537;47.226;39.702;2023-02-20T14:59:43;99708.81;;;6.44;51.45
52651;BME280;38537;47.226;39.702;2023-02-20T15:05:05;99726.06;;;6.60;51.26
52651;BME280;38537;47.226;39.702;2023-02-20T15:07:33;99745.19;;;6.61;50.38
52651;BME280;38537;47.226;39.702;2023-02-20T15:10:06;99730.97;;;6.68;51.12
52651;BME280;38537;47.226;39.702;2023-02-20T15:13:09;99744.91;;;6.81;50.76
52651;BME280;38537;47.226;39.702;2023-02-20T15:15:38;99750.16;;;6.64;50.04
52651;BME280;38537;47.226;39.702;2023-02-20T15:18:31;99753.81;;;6.78;50.83
52651;BME280;38537;47.226;39.702;2023-02-20T15:20:59;99756.78;;;6.87;51.03
52651;BME280;38537;47.226;39.702;2023-02-20T15:23:29;99765.75;;;6.98;50.92
52651;BME280;38537;47.226;39.702;2023-02-20T15:25:58;99765.69;;;7.03;51.25